ADDS METAR Data INFO
IDs: Format: Raw Decoded Include TAF

Data at: 0703 UTC 19 Oct 2017

KSCH 190154Z AUTO 00000KT 10SM CLR 10/08 A3024 RMK LAST
KSCH 190052Z AUTO 00000KT 10SM CLR 11/08 A3024
KSCH 182355Z AUTO 00000KT 10SM CLR 12/08 A3024
KSCH 182248Z AUTO 00000KT 10SM CLR 15/08 A3023
KSCH 182155Z 00000KT 15SM SKC 19/09 A3022
KSCH 182057Z 00000KT 15SM SKC 21/09 A3021
KSCH 181945Z 14005KT 15SM CLR 22/09 A3022
KSCH 181845Z 00000KT 15SM CLR 22/09 A3023
KSCH 181755Z 27003KT 15SM CLR 22/09 A3024
KSCH 181545Z 00000KT 15SM CLR 17/08 A3028
KSCH 181455Z 00000KT 15SM CLR 14/06 A3029
KSCH 181355Z 00000KT 15SM CLR 09/05 A3031
KSCH 181256Z 00000KT 15SM CLR 07/04 A3030
KSCH 181149Z 00000KT 15SM CLR 03/02 A3027
KSCH 180157Z AUTO 28003KT 10SM CLR 07/02 A3020 RMK LAST
KSCH 172350Z AUTO 00000KT 10SM CLR 09/02 A3020
KSCH 172251Z AUTO 18006KT 10SM CLR 11/01 A3019
KSCH 172157Z 18006KT 15SM SKC 12/01 A3019
KSCH 172051Z 18007G15KT 15SM SKC 14/00 A3019
KSCH 171952Z 23007G15KT 15SM SKC 16/M01 A3020